sensor_id;sensor_type;location;lat;lon;timestamp;P1;durP1;ratioP1;P2;durP2;ratioP2
75135;SDS011;63707;52.212;9.540;2023-07-22T00:02:00;24.40;;;13.80;;
75135;SDS011;63707;52.212;9.540;2023-07-22T00:04:26;22.80;;;13.50;;
75135;SDS011;63707;52.212;9.540;2023-07-22T00:06:53;21.52;;;12.75;;
75135;SDS011;63707;52.212;9.540;2023-07-22T00:09:19;23.20;;;14.45;;
75135;SDS011;63707;52.212;9.540;2023-07-22T00:11:45;27.27;;;14.63;;
75135;SDS011;63707;52.212;9.540;2023-07-22T00:14:10;24.25;;;13.75;;
75135;SDS011;63707;52.212;9.540;2023-07-22T00:16:35;28.33;;;14.57;;
75135;SDS011;63707;52.212;9.540;2023-07-22T00:19:01;29.92;;;16.05;;
75135;SDS011;63707;52.212;9.540;2023-07-22T00:21:27;25.20;;;14.82;;
75135;SDS011;63707;52.212;9.540;2023-07-22T00:23:55;28.85;;;17.42;;
75135;SDS011;63707;52.212;9.540;2023-07-22T00:26:21;30.95;;;15.52;;
75135;SDS011;63707;52.212;9.540;2023-07-22T00:28:46;32.33;;;16.83;;
75135;SDS011;63707;52.212;9.540;2023-07-22T00:31:11;30.80;;;16.23;;
75135;SDS011;63707;52.212;9.540;2023-07-22T00:33:37;31.73;;;16.55;;
75135;SDS011;63707;52.212;9.540;2023-07-22T00:36:03;34.78;;;16.58;;
75135;SDS011;63707;52.212;9.540;2023-07-22T00:38:29;30.27;;;16.42;;
75135;SDS011;63707;52.212;9.540;2023-07-22T00:40:56;31.83;;;17.08;;
75135;SDS011;63707;52.212;9.540;2023-07-22T00:43:22;27.50;;;15.73;;
75135;SDS011;63707;52.212;9.540;2023-07-22T00:45:47;29.83;;;16.33;;
75135;SDS011;63707;52.212;9.540;2023-07-22T00:48:13;29.88;;;16.55;;
75135;SDS011;63707;52.212;9.540;2023-07-22T00:50:39;35.40;;;16.00;;
75135;SDS011;63707;52.212;9.540;2023-07-22T00:53:05;34.38;;;17.05;;
75135;SDS011;63707;52.212;9.540;2023-07-22T00:55:30;29.40;;;16.08;;
75135;SDS011;63707;52.212;9.540;2023-07-22T00:57:59;35.50;;;15.60;;
75135;SDS011;63707;52.212;9.540;2023-07-22T01:00:25;30.23;;;16.33;;
75135;SDS011;63707;52.212;9.540;2023-07-22T01:02:50;32.65;;;17.08;;
75135;SDS011;63707;52.212;9.540;2023-07-22T01:05:16;30.55;;;16.95;;
75135;SDS011;63707;52.212;9.540;2023-07-22T01:07:42;28.65;;;16.25;;
75135;SDS011;63707;52.212;9.540;2023-07-22T01:10:09;31.08;;;18.33;;
75135;SDS011;63707;52.212;9.540;2023-07-22T01:12:34;32.03;;;16.95;;
75135;SDS011;63707;52.212;9.540;2023-07-22T01:15:01;27.77;;;16.60;;
75135;SDS011;63707;52.212;9.540;2023-07-22T01:17:32;31.05;;;16.50;;
75135;SDS011;63707;52.212;9.540;2023-07-22T01:19:58;29.33;;;16.45;;
75135;SDS011;63707;52.212;9.540;2023-07-22T01:22:23;34.65;;;16.08;;
75135;SDS011;63707;52.212;9.540;2023-07-22T01:24:51;28.45;;;15.93;;
75135;SDS011;63707;52.212;9.540;2023-07-22T01:27:17;32.35;;;16.45;;
75135;SDS011;63707;52.212;9.540;2023-07-22T01:29:42;29.33;;;15.80;;
75135;SDS011;63707;52.212;9.540;2023-07-22T01:32:08;28.52;;;14.65;;
75135;SDS011;63707;52.212;9.540;2023-07-22T01:34:34;28.42;;;14.82;;
75135;SDS011;63707;52.212;9.540;2023-07-22T01:37:00;37.60;;;16.55;;
75135;SDS011;63707;52.212;9.540;2023-07-22T01:39:25;32.08;;;17.73;;
75135;SDS011;63707;52.212;9.540;2023-07-22T01:41:53;32.63;;;16.15;;
75135;SDS011;63707;52.212;9.540;2023-07-22T01:44:19;32.85;;;16.77;;
75135;SDS011;63707;52.212;9.540;2023-07-22T01:46:44;35.47;;;18.67;;
75135;SDS011;63707;52.212;9.540;2023-07-22T01:49:10;34.20;;;18.02;;
75135;SDS011;63707;52.212;9.540;2023-07-22T01:51:37;35.50;;;17.70;;
75135;SDS011;63707;52.212;9.540;2023-07-22T01:54:03;34.08;;;17.58;;
75135;SDS011;63707;52.212;9.540;2023-07-22T01:56:28;32.47;;;18.05;;
75135;SDS011;63707;52.212;9.540;2023-07-22T01:58:55;38.10;;;16.90;;
75135;SDS011;63707;52.212;9.540;2023-07-22T02:01:21;32.33;;;15.80;;
75135;SDS011;63707;52.212;9.540;2023-07-22T02:03:46;37.25;;;15.50;;
75135;SDS011;63707;52.212;9.540;2023-07-22T02:06:11;27.02;;;13.23;;
75135;SDS011;63707;52.212;9.540;2023-07-22T02:08:37;30.00;;;14.07;;
75135;SDS011;63707;52.212;9.540;2023-07-22T02:11:04;30.92;;;14.43;;
75135;SDS011;63707;52.212;9.540;2023-07-22T02:13:31;35.28;;;14.68;;
75135;SDS011;63707;52.212;9.540;2023-07-22T02:15:58;34.13;;;14.50;;
75135;SDS011;63707;52.212;9.540;2023-07-22T02:18:24;27.92;;;15.32;;
75135;SDS011;63707;52.212;9.540;2023-07-22T02:20:49;34.50;;;14.95;;
75135;SDS011;63707;52.212;9.540;2023-07-22T02:23:15;31.90;;;15.38;;
75135;SDS011;63707;52.212;9.540;2023-07-22T02:25:40;33.47;;;15.27;;
75135;SDS011;63707;52.212;9.540;2023-07-22T02:28:06;27.35;;;14.73;;
75135;SDS011;63707;52.212;9.540;2023-07-22T02:30:33;37.45;;;15.98;;
75135;SDS011;63707;52.212;9.540;2023-07-22T02:33:01;31.15;;;15.32;;
75135;SDS011;63707;52.212;9.540;2023-07-22T02:35:27;31.80;;;15.80;;
75135;SDS011;63707;52.212;9.540;2023-07-22T02:37:52;33.65;;;15.30;;
75135;SDS011;63707;52.212;9.540;2023-07-22T02:40:18;36.35;;;15.70;;
75135;SDS011;63707;52.212;9.540;2023-07-22T02:42:43;29.85;;;15.50;;
75135;SDS011;63707;52.212;9.540;2023-07-22T02:45:09;30.42;;;15.10;;
75135;SDS011;63707;52.212;9.540;2023-07-22T02:47:35;35.70;;;15.68;;
75135;SDS011;63707;52.212;9.540;2023-07-22T02:50:02;30.15;;;14.32;;
75135;SDS011;63707;52.212;9.540;2023-07-22T02:52:31;32.28;;;14.85;;
75135;SDS011;63707;52.212;9.540;2023-07-22T02:55:07;32.67;;;15.48;;
75135;SDS011;63707;52.212;9.540;2023-07-22T02:57:33;35.15;;;15.77;;
75135;SDS011;63707;52.212;9.540;2023-07-22T02:59:59;29.77;;;13.45;;
75135;SDS011;63707;52.212;9.540;2023-07-22T03:02:28;26.92;;;12.15;;
75135;SDS011;63707;52.212;9.540;2023-07-22T03:04:54;29.27;;;11.75;;
75135;SDS011;63707;52.212;9.540;2023-07-22T03:07:21;25.85;;;11.85;;
75135;SDS011;63707;52.212;9.540;2023-07-22T03:09:46;23.35;;;10.50;;
75135;SDS011;63707;52.212;9.540;2023-07-22T03:12:12;32.10;;;12.18;;
75135;SDS011;63707;52.212;9.540;2023-07-22T03:14:38;24.88;;;10.85;;
75135;SDS011;63707;52.212;9.540;2023-07-22T03:17:03;25.10;;;11.63;;
75135;SDS011;63707;52.212;9.540;2023-07-22T03:19:29;28.77;;;12.48;;
75135;SDS011;63707;52.212;9.540;2023-07-22T03:21:55;30.17;;;12.80;;
75135;SDS011;63707;52.212;9.540;2023-07-22T03:24:22;32.38;;;14.85;;
75135;SDS011;63707;52.212;9.540;2023-07-22T03:26:47;38.42;;;16.33;;
75135;SDS011;63707;52.212;9.540;2023-07-22T03:29:13;32.80;;;16.67;;
75135;SDS011;63707;52.212;9.540;2023-07-22T03:31:39;35.40;;;15.55;;
75135;SDS011;63707;52.212;9.540;2023-07-22T03:34:04;38.50;;;17.08;;
75135;SDS011;63707;52.212;9.540;2023-07-22T03:36:30;36.78;;;16.35;;
75135;SDS011;63707;52.212;9.540;2023-07-22T03:38:58;37.58;;;16.10;;
75135;SDS011;63707;52.212;9.540;2023-07-22T03:41:26;51.83;;;18.55;;
75135;SDS011;63707;52.212;9.540;2023-07-22T03:43:51;44.22;;;17.55;;
75135;SDS011;63707;52.212;9.540;2023-07-22T03:46:17;43.30;;;17.38;;
75135;SDS011;63707;52.212;9.540;2023-07-22T03:48:42;39.00;;;16.73;;
75135;SDS011;63707;52.212;9.540;2023-07-22T03:51:08;37.13;;;16.77;;
75135;SDS011;63707;52.212;9.540;2023-07-22T03:53:33;32.70;;;15.32;;
75135;SDS011;63707;52.212;9.540;2023-07-22T03:55:59;39.42;;;15.45;;
75135;SDS011;63707;52.212;9.540;2023-07-22T03:58:26;36.75;;;16.20;;
75135;SDS011;63707;52.212;9.540;2023-07-22T04:00:51;37.58;;;15.50;;
75135;SDS011;63707;52.212;9.540;2023-07-22T04:03:17;34.90;;;15.50;;
75135;SDS011;63707;52.212;9.540;2023-07-22T04:05:42;33.63;;;15.68;;
75135;SDS011;63707;52.212;9.540;2023-07-22T04:08:08;35.13;;;15.50;;
75135;SDS011;63707;52.212;9.540;2023-07-22T04:10:33;34.50;;;14.98;;
75135;SDS011;63707;52.212;9.540;2023-07-22T04:12:59;31.67;;;15.23;;
75135;SDS011;63707;52.212;9.540;2023-07-22T04:15:26;31.75;;;14.40;;
75135;SDS011;63707;52.212;9.540;2023-07-22T04:17:51;34.03;;;15.48;;
75135;SDS011;63707;52.212;9.540;2023-07-22T04:20:17;39.53;;;14.98;;
75135;SDS011;63707;52.212;9.540;2023-07-22T04:22:43;34.72;;;14.27;;
75135;SDS011;63707;52.212;9.540;2023-07-22T04:25:08;35.58;;;13.23;;
75135;SDS011;63707;52.212;9.540;2023-07-22T04:27:34;26.98;;;12.70;;
75135;SDS011;63707;52.212;9.540;2023-07-22T04:29:59;29.10;;;12.57;;
75135;SDS011;63707;52.212;9.540;2023-07-22T04:32:26;29.17;;;12.82;;
75135;SDS011;63707;52.212;9.540;2023-07-22T04:34:53;24.60;;;11.43;;
75135;SDS011;63707;52.212;9.540;2023-07-22T04:37:19;29.52;;;11.43;;
75135;SDS011;63707;52.212;9.540;2023-07-22T04:39:46;29.60;;;12.07;;
75135;SDS011;63707;52.212;9.540;2023-07-22T04:42:13;23.95;;;11.77;;
75135;SDS011;63707;52.212;9.540;2023-07-22T04:44:39;28.52;;;11.82;;
75135;SDS011;63707;52.212;9.540;2023-07-22T04:47:06;29.08;;;11.60;;
75135;SDS011;63707;52.212;9.540;2023-07-22T04:49:32;25.40;;;12.02;;
75135;SDS011;63707;52.212;9.540;2023-07-22T04:51:58;24.80;;;11.20;;
75135;SDS011;63707;52.212;9.540;2023-07-22T04:54:23;27.30;;;11.85;;
75135;SDS011;63707;52.212;9.540;2023-07-22T04:56:49;30.90;;;12.15;;
75135;SDS011;63707;52.212;9.540;2023-07-22T04:59:14;27.25;;;11.23;;
75135;SDS011;63707;52.212;9.540;2023-07-22T05:01:40;24.25;;;10.98;;
75135;SDS011;63707;52.212;9.540;2023-07-22T05:04:06;21.08;;;10.90;;
75135;SDS011;63707;52.212;9.540;2023-07-22T05:06:33;23.92;;;10.40;;
75135;SDS011;63707;52.212;9.540;2023-07-22T05:09:00;25.98;;;10.18;;
75135;SDS011;63707;52.212;9.540;2023-07-22T05:11:26;30.25;;;11.05;;
75135;SDS011;63707;52.212;9.540;2023-07-22T05:13:51;21.73;;;10.55;;
75135;SDS011;63707;52.212;9.540;2023-07-22T05:16:17;21.17;;;10.20;;
75135;SDS011;63707;52.212;9.540;2023-07-22T05:18:43;26.58;;;11.70;;
75135;SDS011;63707;52.212;9.540;2023-07-22T05:21:08;26.08;;;10.48;;
75135;SDS011;63707;52.212;9.540;2023-07-22T05:23:35;24.33;;;11.40;;
75135;SDS011;63707;52.212;9.540;2023-07-22T05:26:00;24.70;;;11.07;;
75135;SDS011;63707;52.212;9.540;2023-07-22T05:28:26;27.88;;;11.10;;
75135;SDS011;63707;52.212;9.540;2023-07-22T05:30:51;31.52;;;11.20;;
75135;SDS011;63707;52.212;9.540;2023-07-22T05:33:17;24.80;;;10.50;;
75135;SDS011;63707;52.212;9.540;2023-07-22T05:35:42;20.92;;;10.48;;
75135;SDS011;63707;52.212;9.540;2023-07-22T05:38:08;24.33;;;10.85;;
75135;SDS011;63707;52.212;9.540;2023-07-22T05:40:35;25.98;;;10.73;;
75135;SDS011;63707;52.212;9.540;2023-07-22T05:43:00;22.85;;;10.45;;
75135;SDS011;63707;52.212;9.540;2023-07-22T05:45:26;26.30;;;10.35;;
75135;SDS011;63707;52.212;9.540;2023-07-22T05:47:51;22.52;;;10.15;;
75135;SDS011;63707;52.212;9.540;2023-07-22T05:50:16;25.88;;;10.60;;
75135;SDS011;63707;52.212;9.540;2023-07-22T05:52:42;22.42;;;10.30;;
75135;SDS011;63707;52.212;9.540;2023-07-22T05:55:08;23.15;;;10.38;;
75135;SDS011;63707;52.212;9.540;2023-07-22T05:57:36;25.00;;;10.77;;
75135;SDS011;63707;52.212;9.540;2023-07-22T06:00:02;21.42;;;10.07;;
75135;SDS011;63707;52.212;9.540;2023-07-22T06:02:28;25.80;;;10.43;;
75135;SDS011;63707;52.212;9.540;2023-07-22T06:04:53;20.95;;;9.70;;
75135;SDS011;63707;52.212;9.540;2023-07-22T06:07:19;20.27;;;10.38;;
75135;SDS011;63707;52.212;9.540;2023-07-22T06:09:44;25.75;;;10.55;;
75135;SDS011;63707;52.212;9.540;2023-07-22T06:12:10;22.10;;;9.88;;
75135;SDS011;63707;52.212;9.540;2023-07-22T06:14:37;23.08;;;11.93;;
75135;SDS011;63707;52.212;9.540;2023-07-22T06:17:03;24.13;;;10.60;;
75135;SDS011;63707;52.212;9.540;2023-07-22T06:19:28;24.77;;;11.05;;
75135;SDS011;63707;52.212;9.540;2023-07-22T06:21:54;21.80;;;10.52;;
75135;SDS011;63707;52.212;9.540;2023-07-22T06:24:19;22.10;;;9.95;;
75135;SDS011;63707;52.212;9.540;2023-07-22T06:26:45;22.10;;;10.32;;
75135;SDS011;63707;52.212;9.540;2023-07-22T06:29:10;28.25;;;11.02;;
75135;SDS011;63707;52.212;9.540;2023-07-22T06:31:37;21.88;;;10.57;;
75135;SDS011;63707;52.212;9.540;2023-07-22T06:34:03;23.92;;;10.20;;
75135;SDS011;63707;52.212;9.540;2023-07-22T06:36:28;19.98;;;9.95;;
75135;SDS011;63707;52.212;9.540;2023-07-22T06:38:54;19.67;;;9.85;;
75135;SDS011;63707;52.212;9.540;2023-07-22T06:41:19;20.15;;;10.40;;
75135;SDS011;63707;52.212;9.540;2023-07-22T06:43:45;26.15;;;11.13;;
75135;SDS011;63707;52.212;9.540;2023-07-22T06:46:11;25.40;;;10.23;;
75135;SDS011;63707;52.212;9.540;2023-07-22T06:48:38;21.10;;;10.68;;
75135;SDS011;63707;52.212;9.540;2023-07-22T06:51:03;21.17;;;10.30;;
75135;SDS011;63707;52.212;9.540;2023-07-22T06:53:28;21.02;;;11.20;;
75135;SDS011;63707;52.212;9.540;2023-07-22T06:55:54;22.85;;;11.90;;
75135;SDS011;63707;52.212;9.540;2023-07-22T06:58:20;21.23;;;11.02;;
75135;SDS011;63707;52.212;9.540;2023-07-22T07:00:47;21.90;;;11.30;;
75135;SDS011;63707;52.212;9.540;2023-07-22T07:03:12;23.17;;;11.13;;
75135;SDS011;63707;52.212;9.540;2023-07-22T07:05:39;22.25;;;10.95;;
75135;SDS011;63707;52.212;9.540;2023-07-22T07:08:06;22.75;;;11.32;;
75135;SDS011;63707;52.212;9.540;2023-07-22T07:10:35;23.92;;;10.93;;
75135;SDS011;63707;52.212;9.540;2023-07-22T07:13:02;21.20;;;11.07;;
75135;SDS011;63707;52.212;9.540;2023-07-22T07:15:27;23.90;;;12.73;;
75135;SDS011;63707;52.212;9.540;2023-07-22T07:17:53;23.92;;;11.32;;
75135;SDS011;63707;52.212;9.540;2023-07-22T07:20:19;19.33;;;11.10;;
75135;SDS011;63707;52.212;9.540;2023-07-22T07:22:46;24.33;;;10.75;;
75135;SDS011;63707;52.212;9.540;2023-07-22T07:25:12;22.13;;;10.15;;
75135;SDS011;63707;52.212;9.540;2023-07-22T07:27:37;23.45;;;10.43;;
75135;SDS011;63707;52.212;9.540;2023-07-22T07:30:03;20.88;;;11.05;;
75135;SDS011;63707;52.212;9.540;2023-07-22T07:32:30;19.88;;;9.65;;
75135;SDS011;63707;52.212;9.540;2023-07-22T07:34:55;18.15;;;10.30;;
75135;SDS011;63707;52.212;9.540;2023-07-22T07:37:22;19.60;;;10.68;;
75135;SDS011;63707;52.212;9.540;2023-07-22T07:39:49;19.10;;;10.40;;
75135;SDS011;63707;52.212;9.540;2023-07-22T07:42:14;20.73;;;11.10;;
75135;SDS011;63707;52.212;9.540;2023-07-22T07:44:40;18.52;;;10.30;;
75135;SDS011;63707;52.212;9.540;2023-07-22T07:47:05;28.95;;;11.43;;
75135;SDS011;63707;52.212;9.540;2023-07-22T07:49:31;22.70;;;10.90;;
75135;SDS011;63707;52.212;9.540;2023-07-22T07:51:56;21.70;;;10.70;;
75135;SDS011;63707;52.212;9.540;2023-07-22T07:54:21;20.48;;;10.07;;
75135;SDS011;63707;52.212;9.540;2023-07-22T07:56:48;21.08;;;11.65;;
75135;SDS011;63707;52.212;9.540;2023-07-22T07:59:14;22.50;;;11.10;;
75135;SDS011;63707;52.212;9.540;2023-07-22T08:01:39;23.35;;;10.98;;
75135;SDS011;63707;52.212;9.540;2023-07-22T08:04:06;23.08;;;11.18;;
75135;SDS011;63707;52.212;9.540;2023-07-22T08:06:32;22.25;;;11.15;;
75135;SDS011;63707;52.212;9.540;2023-07-22T08:08:58;21.70;;;11.30;;
75135;SDS011;63707;52.212;9.540;2023-07-22T08:11:24;21.15;;;11.10;;
75135;SDS011;63707;52.212;9.540;2023-07-22T08:13:51;19.58;;;11.35;;
75135;SDS011;63707;52.212;9.540;2023-07-22T08:16:17;19.27;;;10.98;;
75135;SDS011;63707;52.212;9.540;2023-07-22T08:18:43;21.27;;;10.40;;
75135;SDS011;63707;52.212;9.540;2023-07-22T08:21:08;20.63;;;10.95;;
75135;SDS011;63707;52.212;9.540;2023-07-22T08:23:34;20.48;;;10.43;;
75135;SDS011;63707;52.212;9.540;2023-07-22T08:26:01;23.92;;;12.45;;
75135;SDS011;63707;52.212;9.540;2023-07-22T08:28:27;17.77;;;10.90;;
75135;SDS011;63707;52.212;9.540;2023-07-22T08:30:55;22.95;;;10.90;;
75135;SDS011;63707;52.212;9.540;2023-07-22T08:33:21;22.40;;;11.20;;
75135;SDS011;63707;52.212;9.540;2023-07-22T08:35:47;22.55;;;12.25;;
75135;SDS011;63707;52.212;9.540;2023-07-22T08:38:13;18.83;;;10.80;;
75135;SDS011;63707;52.212;9.540;2023-07-22T08:40:39;22.45;;;11.90;;
75135;SDS011;63707;52.212;9.540;2023-07-22T08:43:06;23.08;;;11.88;;
75135;SDS011;63707;52.212;9.540;2023-07-22T08:45:33;19.13;;;11.70;;
75135;SDS011;63707;52.212;9.540;2023-07-22T08:48:03;22.38;;;12.00;;
75135;SDS011;63707;52.212;9.540;2023-07-22T08:50:39;25.55;;;13.20;;
75135;SDS011;63707;52.212;9.540;2023-07-22T08:53:07;25.52;;;12.25;;
75135;SDS011;63707;52.212;9.540;2023-07-22T08:55:33;26.55;;;13.18;;
75135;SDS011;63707;52.212;9.540;2023-07-22T08:57:59;22.90;;;13.75;;
75135;SDS011;63707;52.212;9.540;2023-07-22T09:00:26;22.92;;;12.95;;
75135;SDS011;63707;52.212;9.540;2023-07-22T09:02:53;30.27;;;13.60;;
75135;SDS011;63707;52.212;9.540;2023-07-22T09:05:20;25.30;;;12.55;;
75135;SDS011;63707;52.212;9.540;2023-07-22T09:07:47;20.17;;;11.23;;
75135;SDS011;63707;52.212;9.540;2023-07-22T09:10:13;18.40;;;11.32;;
75135;SDS011;63707;52.212;9.540;2023-07-22T09:12:40;17.33;;;10.32;;
75135;SDS011;63707;52.212;9.540;2023-07-22T09:15:08;16.45;;;10.18;;
75135;SDS011;63707;52.212;9.540;2023-07-22T09:17:36;15.77;;;10.13;;
75135;SDS011;63707;52.212;9.540;2023-07-22T09:20:02;19.38;;;10.77;;
75135;SDS011;63707;52.212;9.540;2023-07-22T09:22:30;17.88;;;9.93;;
75135;SDS011;63707;52.212;9.540;2023-07-22T09:25:03;18.65;;;10.27;;
75135;SDS011;63707;52.212;9.540;2023-07-22T09:27:39;16.80;;;9.65;;
75135;SDS011;63707;52.212;9.540;2023-07-22T09:30:17;14.32;;;8.98;;
75135;SDS011;63707;52.212;9.540;2023-07-22T09:32:46;15.43;;;8.73;;
75135;SDS011;63707;52.212;9.540;2023-07-22T09:35:11;13.38;;;8.77;;
75135;SDS011;63707;52.212;9.540;2023-07-22T09:37:38;16.58;;;8.40;;
75135;SDS011;63707;52.212;9.540;2023-07-22T09:40:11;14.68;;;8.32;;
75135;SDS011;63707;52.212;9.540;2023-07-22T09:42:38;12.02;;;7.05;;
75135;SDS011;63707;52.212;9.540;2023-07-22T09:45:04;13.50;;;7.13;;
75135;SDS011;63707;52.212;9.540;2023-07-22T09:47:36;10.60;;;6.63;;
75135;SDS011;63707;52.212;9.540;2023-07-22T09:50:05;13.57;;;7.20;;
75135;SDS011;63707;52.212;9.540;2023-07-22T09:52:31;15.02;;;6.70;;
75135;SDS011;63707;52.212;9.540;2023-07-22T09:54:59;14.57;;;7.45;;
75135;SDS011;63707;52.212;9.540;2023-07-22T09:57:25;11.23;;;6.80;;
75135;SDS011;63707;52.212;9.540;2023-07-22T09:59:51;13.98;;;6.75;;
75135;SDS011;63707;52.212;9.540;2023-07-22T10:02:18;10.88;;;6.25;;
75135;SDS011;63707;52.212;9.540;2023-07-22T10:04:47;12.68;;;6.85;;
75135;SDS011;63707;52.212;9.540;2023-07-22T10:07:16;9.77;;;5.97;;
75135;SDS011;63707;52.212;9.540;2023-07-22T10:09:44;12.35;;;5.63;;
75135;SDS011;63707;52.212;9.540;2023-07-22T10:12:13;12.68;;;6.43;;
75135;SDS011;63707;52.212;9.540;2023-07-22T10:14:40;10.95;;;6.53;;
75135;SDS011;63707;52.212;9.540;2023-07-22T10:17:06;12.07;;;6.70;;
75135;SDS011;63707;52.212;9.540;2023-07-22T10:19:33;12.80;;;7.05;;
75135;SDS011;63707;52.212;9.540;2023-07-22T10:21:59;14.57;;;7.13;;
75135;SDS011;63707;52.212;9.540;2023-07-22T10:24:25;12.52;;;6.10;;
75135;SDS011;63707;52.212;9.540;2023-07-22T10:26:51;11.55;;;7.30;;
75135;SDS011;63707;52.212;9.540;2023-07-22T10:29:18;12.80;;;6.82;;
75135;SDS011;63707;52.212;9.540;2023-07-22T10:31:45;14.43;;;6.95;;
75135;SDS011;63707;52.212;9.540;2023-07-22T10:34:10;12.23;;;6.63;;
75135;SDS011;63707;52.212;9.540;2023-07-22T10:36:36;11.88;;;6.65;;
75135;SDS011;63707;52.212;9.540;2023-07-22T10:39:02;14.45;;;7.15;;
75135;SDS011;63707;52.212;9.540;2023-07-22T10:41:27;14.48;;;7.25;;
75135;SDS011;63707;52.212;9.540;2023-07-22T10:43:54;12.27;;;5.95;;
75135;SDS011;63707;52.212;9.540;2023-07-22T10:46:31;13.63;;;6.15;;
75135;SDS011;63707;52.212;9.540;2023-07-22T10:49:06;10.40;;;6.15;;
75135;SDS011;63707;52.212;9.540;2023-07-22T10:51:35;10.07;;;6.15;;
75135;SDS011;63707;52.212;9.540;2023-07-22T10:54:02;9.38;;;5.25;;
75135;SDS011;63707;52.212;9.540;2023-07-22T10:56:28;13.82;;;5.25;;
75135;SDS011;63707;52.212;9.540;2023-07-22T10:58:57;11.57;;;5.60;;
75135;SDS011;63707;52.212;9.540;2023-07-22T11:01:30;7.35;;;5.35;;
75135;SDS011;63707;52.212;9.540;2023-07-22T11:04:10;10.57;;;5.63;;
75135;SDS011;63707;52.212;9.540;2023-07-22T11:06:57;10.25;;;5.72;;
75135;SDS011;63707;52.212;9.540;2023-07-22T11:09:37;9.73;;;5.70;;
75135;SDS011;63707;52.212;9.540;2023-07-22T11:12:04;9.65;;;5.88;;
75135;SDS011;63707;52.212;9.540;2023-07-22T11:14:32;9.75;;;5.07;;
75135;SDS011;63707;52.212;9.540;2023-07-22T11:17:00;9.43;;;5.75;;
75135;SDS011;63707;52.212;9.540;2023-07-22T11:19:28;8.93;;;5.28;;
75135;SDS011;63707;52.212;9.540;2023-07-22T11:21:55;9.68;;;5.50;;
75135;SDS011;63707;52.212;9.540;2023-07-22T11:24:22;9.20;;;5.70;;
75135;SDS011;63707;52.212;9.540;2023-07-22T11:26:49;10.38;;;5.97;;
75135;SDS011;63707;52.212;9.540;2023-07-22T11:29:15;9.50;;;5.70;;
75135;SDS011;63707;52.212;9.540;2023-07-22T11:31:42;9.35;;;6.30;;
75135;SDS011;63707;52.212;9.540;2023-07-22T11:34:09;9.35;;;6.35;;
75135;SDS011;63707;52.212;9.540;2023-07-22T11:36:35;11.27;;;6.28;;
75135;SDS011;63707;52.212;9.540;2023-07-22T11:39:01;7.78;;;5.30;;
75135;SDS011;63707;52.212;9.540;2023-07-22T11:41:28;9.93;;;5.75;;
75135;SDS011;63707;52.212;9.540;2023-07-22T11:43:55;7.90;;;5.30;;
75135;SDS011;63707;52.212;9.540;2023-07-22T11:46:21;9.05;;;5.18;;
75135;SDS011;63707;52.212;9.540;2023-07-22T11:48:50;8.32;;;5.13;;
75135;SDS011;63707;52.212;9.540;2023-07-22T11:51:18;9.05;;;5.53;;
75135;SDS011;63707;52.212;9.540;2023-07-22T11:53:46;7.15;;;5.20;;
75135;SDS011;63707;52.212;9.540;2023-07-22T11:56:13;8.82;;;5.25;;
75135;SDS011;63707;52.212;9.540;2023-07-22T11:58:43;7.40;;;5.70;;
75135;SDS011;63707;52.212;9.540;2023-07-22T12:01:13;6.82;;;4.90;;
75135;SDS011;63707;52.212;9.540;2023-07-22T12:03:40;8.20;;;5.28;;
75135;SDS011;63707;52.212;9.540;2023-07-22T12:06:06;7.88;;;4.90;;
75135;SDS011;63707;52.212;9.540;2023-07-22T12:08:33;7.38;;;5.05;;
75135;SDS011;63707;52.212;9.540;2023-07-22T12:10:59;9.50;;;5.10;;
75135;SDS011;63707;52.212;9.540;2023-07-22T12:13:25;8.73;;;5.00;;
75135;SDS011;63707;52.212;9.540;2023-07-22T12:15:59;8.82;;;4.72;;
75135;SDS011;63707;52.212;9.540;2023-07-22T12:20:50;7.00;;;4.53;;
75135;SDS011;63707;52.212;9.540;2023-07-22T12:23:16;8.93;;;4.82;;
75135;SDS011;63707;52.212;9.540;2023-07-22T12:25:42;7.72;;;5.00;;
75135;SDS011;63707;52.212;9.540;2023-07-22T12:28:09;9.60;;;4.63;;
75135;SDS011;63707;52.212;9.540;2023-07-22T12:30:35;7.63;;;4.88;;
75135;SDS011;63707;52.212;9.540;2023-07-22T12:33:01;7.68;;;4.63;;
75135;SDS011;63707;52.212;9.540;2023-07-22T12:35:27;9.55;;;5.45;;
75135;SDS011;63707;52.212;9.540;2023-07-22T12:37:52;8.80;;;5.10;;
75135;SDS011;63707;52.212;9.540;2023-07-22T12:40:18;10.35;;;5.63;;
75135;SDS011;63707;52.212;9.540;2023-07-22T12:42:45;12.52;;;5.80;;
75135;SDS011;63707;52.212;9.540;2023-07-22T12:45:10;8.88;;;5.03;;
75135;SDS011;63707;52.212;9.540;2023-07-22T12:47:36;9.02;;;4.90;;
75135;SDS011;63707;52.212;9.540;2023-07-22T12:50:02;7.75;;;5.15;;
75135;SDS011;63707;52.212;9.540;2023-07-22T12:52:27;12.32;;;5.22;;
75135;SDS011;63707;52.212;9.540;2023-07-22T12:54:53;9.65;;;5.53;;
75135;SDS011;63707;52.212;9.540;2023-07-22T12:57:18;9.13;;;5.50;;
75135;SDS011;63707;52.212;9.540;2023-07-22T12:59:45;8.65;;;5.15;;
75135;SDS011;63707;52.212;9.540;2023-07-22T13:02:11;9.52;;;5.40;;
75135;SDS011;63707;52.212;9.540;2023-07-22T13:04:36;9.55;;;5.00;;
75135;SDS011;63707;52.212;9.540;2023-07-22T13:07:01;9.55;;;5.50;;
75135;SDS011;63707;52.212;9.540;2023-07-22T13:09:28;8.93;;;5.55;;
75135;SDS011;63707;52.212;9.540;2023-07-22T13:11:54;9.05;;;5.63;;
75135;SDS011;63707;52.212;9.540;2023-07-22T13:14:19;10.02;;;5.47;;
75135;SDS011;63707;52.212;9.540;2023-07-22T13:16:47;8.40;;;5.82;;
75135;SDS011;63707;52.212;9.540;2023-07-22T13:19:12;9.73;;;6.03;;
75135;SDS011;63707;52.212;9.540;2023-07-22T13:21:38;10.20;;;5.72;;
75135;SDS011;63707;52.212;9.540;2023-07-22T13:24:03;10.40;;;5.90;;
75135;SDS011;63707;52.212;9.540;2023-07-22T13:26:29;8.38;;;5.70;;
75135;SDS011;63707;52.212;9.540;2023-07-22T13:28:55;12.68;;;6.47;;
75135;SDS011;63707;52.212;9.540;2023-07-22T13:31:20;10.43;;;5.93;;
75135;SDS011;63707;52.212;9.540;2023-07-22T13:33:47;9.95;;;6.22;;
75135;SDS011;63707;52.212;9.540;2023-07-22T13:36:13;8.68;;;6.07;;
75135;SDS011;63707;52.212;9.540;2023-07-22T13:38:38;9.63;;;5.88;;
75135;SDS011;63707;52.212;9.540;2023-07-22T13:41:03;8.32;;;5.60;;
75135;SDS011;63707;52.212;9.540;2023-07-22T13:43:29;9.52;;;5.43;;
75135;SDS011;63707;52.212;9.540;2023-07-22T13:45:54;9.00;;;5.78;;
75135;SDS011;63707;52.212;9.540;2023-07-22T13:48:20;9.85;;;5.53;;
75135;SDS011;63707;52.212;9.540;2023-07-22T13:50:47;9.82;;;6.13;;
75135;SDS011;63707;52.212;9.540;2023-07-22T13:53:12;9.13;;;5.78;;
75135;SDS011;63707;52.212;9.540;2023-07-22T13:55:38;7.28;;;5.45;;
75135;SDS011;63707;52.212;9.540;2023-07-22T13:58:03;8.60;;;5.97;;
75135;SDS011;63707;52.212;9.540;2023-07-22T14:00:29;11.80;;;5.47;;
75135;SDS011;63707;52.212;9.540;2023-07-22T14:02:54;7.63;;;5.18;;
75135;SDS011;63707;52.212;9.540;2023-07-22T14:05:20;10.52;;;5.70;;
75135;SDS011;63707;52.212;9.540;2023-07-22T14:07:47;8.73;;;5.32;;
75135;SDS011;63707;52.212;9.540;2023-07-22T14:10:12;8.55;;;5.60;;
75135;SDS011;63707;52.212;9.540;2023-07-22T14:12:38;9.80;;;5.57;;
75135;SDS011;63707;52.212;9.540;2023-07-22T14:15:03;13.57;;;5.55;;
75135;SDS011;63707;52.212;9.540;2023-07-22T14:17:29;9.52;;;5.43;;
75135;SDS011;63707;52.212;9.540;2023-07-22T14:19:57;8.90;;;5.82;;
75135;SDS011;63707;52.212;9.540;2023-07-22T14:22:23;7.60;;;4.90;;
75135;SDS011;63707;52.212;9.540;2023-07-22T14:24:49;9.30;;;5.55;;
75135;SDS011;63707;52.212;9.540;2023-07-22T14:27:15;8.50;;;4.93;;